createdAt,value
2022-09-14T00:02:23.074Z,18.09
2022-09-14T00:04:54.833Z,18.13
2022-09-14T00:07:26.313Z,18.18
2022-09-14T00:10:42.304Z,18.06
2022-09-14T00:13:12.565Z,17.97
2022-09-14T00:15:46.648Z,18.06
2022-09-14T00:18:18.148Z,18.10
2022-09-14T00:20:49.525Z,18.17
2022-09-14T00:23:20.901Z,18.05
2022-09-14T00:25:52.329Z,17.98
2022-09-14T00:28:23.978Z,17.86
2022-09-14T00:30:55.275Z,17.81
2022-09-14T00:33:26.736Z,17.63
2022-09-14T00:35:58.497Z,17.50
2022-09-14T00:38:30.872Z,17.54
2022-09-14T00:41:03.338Z,17.55
2022-09-14T00:43:35.665Z,17.60
2022-09-14T00:46:07.481Z,17.53
2022-09-14T00:48:39.013Z,17.48
2022-09-14T00:51:10.658Z,17.44
2022-09-14T00:53:42.249Z,17.59
2022-09-14T00:56:14.556Z,17.71
2022-09-14T00:58:47.628Z,17.77
2022-09-14T01:01:19.662Z,17.66
2022-09-14T01:03:51.221Z,17.61
2022-09-14T01:06:34.358Z,17.71
2022-09-14T01:09:19.680Z,17.86
2022-09-14T01:12:04.692Z,17.85
2022-09-14T01:14:50.504Z,17.68
2022-09-14T01:17:29.447Z,17.58
2022-09-14T01:20:17.388Z,17.44
2022-09-14T01:22:54.500Z,17.39
2022-09-14T01:25:51.410Z,17.45
2022-09-14T01:28:28.504Z,17.34
2022-09-14T01:31:04.130Z,17.30
2022-09-14T01:33:40.402Z,17.26
2022-09-14T01:36:15.154Z,17.16
2022-09-14T01:38:50.454Z,17.17
2022-09-14T01:41:25.476Z,17.21
2022-09-14T01:44:00.579Z,17.08
2022-09-14T01:46:35.849Z,17.22
2022-09-14T01:49:13.360Z,17.06
2022-09-14T01:51:47.782Z,17.04
2022-09-14T01:54:23.591Z,16.89
2022-09-14T01:56:58.010Z,16.89
2022-09-14T01:59:33.373Z,16.85
2022-09-14T02:02:11.213Z,16.82
2022-09-14T02:04:48.761Z,16.87
2022-09-14T02:07:22.229Z,16.75
2022-09-14T02:09:56.581Z,16.67
2022-09-14T02:12:28.334Z,16.58
2022-09-14T02:14:59.753Z,16.58
2022-09-14T02:17:32.644Z,16.70
2022-09-14T02:20:07.252Z,16.82
2022-09-14T02:22:37.192Z,16.91
2022-09-14T02:25:10.067Z,16.91
2022-09-14T02:27:41.447Z,16.91
2022-09-14T02:30:14.411Z,16.73
2022-09-14T02:32:56.934Z,16.57
2022-09-14T02:35:32.763Z,16.56
2022-09-14T02:38:12.426Z,16.49
2022-09-14T02:40:53.127Z,16.52
2022-09-14T02:43:50.822Z,16.49
2022-09-14T02:46:28.576Z,16.36
2022-09-14T02:49:05.419Z,16.39
2022-09-14T02:51:41.972Z,16.37
2022-09-14T02:54:17.453Z,16.32
2022-09-14T02:56:49.116Z,16.31
2022-09-14T02:59:20.529Z,16.36
2022-09-14T03:01:51.913Z,16.46
2022-09-14T03:04:23.356Z,16.46
2022-09-14T03:06:54.680Z,16.55
2022-09-14T03:09:26.064Z,16.34
2022-09-14T03:11:57.782Z,16.31
2022-09-14T03:14:29.077Z,16.36
2022-09-14T03:17:00.455Z,16.28
2022-09-14T03:19:31.702Z,16.28
2022-09-14T03:22:03.183Z,16.15
2022-09-14T03:24:34.900Z,16.22
2022-09-14T03:27:09.975Z,16.17
2022-09-14T03:29:49.595Z,16.24
2022-09-14T03:32:29.862Z,16.38
2022-09-14T03:35:12.327Z,16.45
2022-09-14T03:37:53.226Z,16.40
2022-09-14T03:40:32.842Z,16.36
2022-09-14T03:43:04.211Z,16.37
2022-09-14T03:45:38.323Z,16.40
2022-09-14T03:48:11.647Z,16.32
2022-09-14T03:50:43.087Z,16.33
2022-09-14T03:53:14.448Z,16.44
2022-09-14T03:55:45.837Z,16.40
2022-09-14T03:58:17.189Z,16.14
2022-09-14T04:00:48.537Z,16.13
2022-09-14T04:03:20.227Z,16.18
2022-09-14T04:05:59.119Z,16.28
2022-09-14T04:08:31.751Z,16.24
2022-09-14T04:11:08.266Z,16.15
2022-09-14T04:13:40.787Z,16.25
2022-09-14T04:16:13.333Z,16.26
2022-09-14T04:18:44.901Z,16.17
2022-09-14T04:21:18.997Z,16.23
2022-09-14T04:24:13.282Z,16.43
2022-09-14T04:26:42.174Z,16.69
2022-09-14T04:29:14.867Z,16.80
2022-09-14T04:31:46.775Z,16.91
2022-09-14T04:34:18.091Z,16.89
2022-09-14T04:36:49.421Z,16.78
2022-09-14T04:39:20.997Z,16.65
2022-09-14T04:41:52.443Z,16.54
2022-09-14T04:44:24.019Z,16.43
2022-09-14T04:46:55.478Z,16.34
2022-09-14T04:49:26.994Z,16.33
2022-09-14T04:51:58.301Z,16.39
2022-09-14T04:54:29.627Z,16.46
2022-09-14T04:57:00.909Z,16.39
2022-09-14T04:59:32.676Z,16.43
2022-09-14T05:02:04.263Z,16.43
2022-09-14T05:04:35.788Z,16.65
2022-09-14T05:07:07.349Z,16.70
2022-09-14T05:09:38.864Z,16.68
2022-09-14T05:12:11.023Z,16.61
2022-09-14T05:14:42.280Z,16.62
2022-09-14T05:17:13.616Z,16.61
2022-09-14T05:19:44.980Z,16.83
2022-09-14T05:22:16.945Z,17.07
2022-09-14T05:24:48.358Z,17.14
2022-09-14T05:27:20.055Z,17.15
2022-09-14T05:29:51.561Z,17.23
2022-09-14T05:32:22.995Z,17.35
2022-09-14T05:34:54.323Z,17.45
2022-09-14T05:37:25.735Z,17.53
2022-09-14T05:39:57.298Z,17.62
2022-09-14T05:42:28.749Z,17.69
2022-09-14T05:45:00.134Z,17.74
2022-09-14T05:47:38.375Z,17.75
2022-09-14T05:50:12.039Z,17.58
2022-09-14T05:52:43.436Z,17.66
2022-09-14T05:55:15.154Z,17.80
2022-09-14T05:57:49.950Z,17.96
2022-09-14T06:00:22.022Z,17.86
2022-09-14T06:02:55.193Z,17.75
2022-09-14T06:05:28.501Z,17.70
2022-09-14T06:07:59.829Z,17.73
2022-09-14T06:10:31.345Z,17.78
2022-09-14T06:13:04.256Z,17.77
2022-09-14T06:15:36.332Z,18.03
2022-09-14T06:18:07.860Z,18.29
2022-09-14T06:20:39.499Z,18.50
2022-09-14T06:23:10.901Z,18.73
2022-09-14T06:25:42.261Z,18.76
2022-09-14T06:28:13.665Z,18.77
2022-09-14T06:30:47.539Z,18.91
2022-09-14T06:33:19.250Z,19.05
2022-09-14T06:35:59.604Z,19.12
2022-09-14T06:38:31.727Z,19.13
2022-09-14T06:41:06.735Z,19.19
2022-09-14T06:43:40.530Z,19.21
2022-09-14T06:46:15.181Z,19.09
2022-09-14T06:48:48.961Z,19.12
2022-09-14T06:51:23.921Z,19.34
2022-09-14T06:53:57.139Z,19.65
2022-09-14T06:56:29.787Z,19.95
2022-09-14T06:59:01.345Z,20.10
2022-09-14T07:01:33.000Z,20.47
2022-09-14T07:04:05.678Z,20.87
2022-09-14T07:06:42.689Z,21.12
2022-09-14T07:09:14.438Z,21.19
2022-09-14T07:11:46.385Z,21.31
2022-09-14T07:14:18.215Z,21.33
2022-09-14T07:16:49.782Z,21.54
2022-09-14T07:19:21.352Z,21.58
2022-09-14T07:21:55.006Z,21.65
2022-09-14T07:24:26.655Z,21.80
2022-09-14T07:26:58.163Z,21.95
2022-09-14T07:29:29.479Z,22.00
2022-09-14T07:32:00.967Z,21.91
2022-09-14T07:34:32.546Z,21.89
2022-09-14T07:37:03.968Z,22.05
2022-09-14T07:39:35.424Z,22.03
2022-09-14T07:42:07.292Z,22.09
2022-09-14T07:44:38.889Z,22.15
2022-09-14T07:47:10.660Z,22.28
2022-09-14T07:49:42.054Z,22.29
2022-09-14T07:52:13.649Z,22.40
2022-09-14T07:54:45.176Z,22.39
2022-09-14T07:57:17.395Z,22.25
2022-09-14T07:59:48.812Z,22.24
2022-09-14T08:02:23.611Z,22.13
2022-09-14T08:04:55.189Z,22.20
2022-09-14T08:07:27.791Z,22.41
2022-09-14T08:09:59.289Z,22.43
2022-09-14T08:12:30.754Z,22.42
2022-09-14T08:15:02.169Z,22.29
2022-09-14T08:17:33.645Z,22.16
2022-09-14T08:20:06.052Z,22.14
2022-09-14T08:22:37.759Z,22.18
2022-09-14T08:25:10.740Z,22.27
2022-09-14T08:27:42.588Z,22.14
2022-09-14T08:30:15.319Z,21.87
2022-09-14T08:32:47.250Z,21.81
2022-09-14T08:35:30.863Z,21.90
2022-09-14T08:38:10.514Z,21.97
2022-09-14T08:40:47.988Z,21.99
2022-09-14T08:43:20.338Z,21.96
2022-09-14T08:45:56.048Z,21.85
2022-09-14T08:48:32.882Z,21.85
2022-09-14T08:51:05.252Z,21.81
2022-09-14T08:53:41.226Z,21.81
2022-09-14T08:56:18.546Z,21.88
2022-09-14T08:59:04.925Z,21.97
2022-09-14T09:01:45.304Z,22.01
2022-09-14T09:04:34.726Z,21.91
2022-09-14T09:07:20.423Z,21.77
2022-09-14T09:09:53.916Z,21.57
2022-09-14T09:12:31.992Z,21.37
2022-09-14T09:15:06.645Z,21.39
2022-09-14T09:17:43.616Z,21.33
2022-09-14T09:20:20.116Z,21.24
2022-09-14T09:22:56.608Z,21.17
2022-09-14T09:25:32.818Z,21.23
2022-09-14T09:28:13.507Z,21.47
2022-09-14T09:30:46.069Z,21.55
2022-09-14T09:33:21.558Z,21.48
2022-09-14T09:35:53.456Z,21.46
2022-09-14T09:38:26.797Z,21.57
2022-09-14T09:41:03.631Z,21.56
2022-09-14T09:43:48.746Z,21.63
2022-09-14T09:46:21.116Z,21.91
2022-09-14T09:48:52.798Z,21.96
2022-09-14T09:51:32.468Z,21.83
2022-09-14T09:54:11.009Z,21.89
2022-09-14T09:56:53.239Z,21.90
2022-09-14T09:59:35.505Z,21.83
2022-09-14T10:02:30.536Z,21.76
2022-09-14T10:05:01.922Z,21.70
2022-09-14T10:07:34.994Z,21.72
2022-09-14T10:10:09.959Z,21.84
2022-09-14T10:12:50.441Z,21.86
2022-09-14T10:15:26.041Z,21.90
2022-09-14T10:18:09.212Z,22.06
2022-09-14T10:20:43.847Z,22.01
2022-09-14T10:23:28.411Z,22.02
2022-09-14T10:26:24.910Z,22.14
2022-09-14T10:28:56.680Z,22.17
2022-09-14T10:31:34.416Z,22.12
2022-09-14T10:34:17.293Z,22.15
2022-09-14T10:36:56.778Z,22.10
2022-09-14T10:39:40.378Z,22.07
2022-09-14T10:42:19.726Z,22.13
2022-09-14T10:45:07.812Z,21.96
2022-09-14T10:48:10.899Z,21.98
2022-09-14T10:50:56.440Z,21.97
2022-09-14T10:53:42.070Z,22.00
2022-09-14T10:56:20.606Z,22.10
2022-09-14T10:59:11.589Z,22.15
2022-09-14T11:02:04.512Z,22.26
2022-09-14T11:04:55.611Z,22.17
2022-09-14T11:07:34.063Z,22.29
2022-09-14T11:10:17.631Z,22.38
2022-09-14T11:12:57.979Z,22.48
2022-09-14T11:15:42.024Z,22.38
2022-09-14T11:18:23.138Z,22.20
2022-09-14T11:21:07.949Z,22.16
2022-09-14T11:23:46.937Z,22.12
2022-09-14T11:26:33.190Z,22.22
2022-09-14T11:29:17.662Z,22.15
2022-09-14T11:32:16.783Z,22.05
2022-09-14T11:34:55.087Z,22.03
2022-09-14T11:37:33.561Z,22.21
2022-09-14T11:40:18.671Z,22.35
2022-09-14T11:42:57.837Z,22.47
2022-09-14T11:45:36.084Z,22.58
2022-09-14T11:48:41.781Z,22.66
2022-09-14T11:51:17.414Z,22.71
2022-09-14T11:53:51.306Z,22.67
2022-09-14T11:56:31.409Z,22.49
2022-09-14T11:59:08.124Z,22.48
2022-09-14T12:01:41.837Z,22.43
2022-09-14T12:04:20.112Z,22.46
2022-09-14T12:07:07.259Z,22.44
2022-09-14T12:09:49.409Z,22.42
2022-09-14T12:12:46.547Z,22.51
2022-09-14T12:15:37.684Z,22.65
2022-09-14T12:18:29.005Z,22.65
2022-09-14T12:21:20.188Z,22.50
2022-09-14T12:23:58.150Z,22.50
2022-09-14T12:26:34.553Z,22.54
2022-09-14T12:29:22.067Z,22.59
2022-09-14T12:32:29.073Z,22.55
2022-09-14T12:35:39.358Z,22.58
2022-09-14T12:39:06.216Z,22.66
2022-09-14T12:42:25.278Z,22.63
2022-09-14T12:44:57.808Z,22.57
2022-09-14T12:47:53.555Z,22.51
2022-09-14T12:50:29.617Z,22.49
2022-09-14T12:53:23.307Z,22.65
2022-09-14T12:56:02.344Z,22.76
2022-09-14T12:59:03.875Z,22.78
2022-09-14T13:01:46.245Z,22.72
2022-09-14T13:04:26.626Z,22.67
2022-09-14T13:07:00.591Z,22.69
2022-09-14T13:09:34.032Z,22.73
2022-09-14T13:12:07.724Z,22.63
2022-09-14T13:14:48.447Z,22.53
2022-09-14T13:17:20.800Z,22.61
2022-09-14T13:19:59.984Z,22.57
2022-09-14T13:22:34.013Z,22.65
2022-09-14T13:25:05.884Z,22.68
2022-09-14T13:27:39.616Z,22.76
2022-09-14T13:30:23.282Z,22.90
2022-09-14T13:32:58.468Z,22.98
2022-09-14T13:35:34.613Z,22.88
2022-09-14T13:38:11.614Z,22.85
2022-09-14T13:40:43.158Z,22.81
2022-09-14T13:43:14.725Z,22.74
2022-09-14T13:45:46.522Z,22.83
2022-09-14T13:48:29.769Z,22.87
2022-09-14T13:51:12.451Z,22.93
2022-09-14T13:53:56.947Z,22.86
2022-09-14T13:56:41.200Z,22.75
2022-09-14T13:59:23.176Z,22.67
2022-09-14T14:02:09.420Z,22.57
2022-09-14T14:04:42.469Z,22.58
2022-09-14T14:07:23.989Z,22.53
2022-09-14T14:09:57.411Z,22.50
2022-09-14T14:12:32.411Z,22.62
2022-09-14T14:15:09.321Z,22.62
2022-09-14T14:17:42.780Z,22.67
2022-09-14T14:20:35.520Z,22.85
2022-09-14T14:23:22.951Z,22.68
2022-09-14T14:25:56.456Z,22.75
2022-09-14T14:28:30.404Z,22.75
2022-09-14T14:31:08.554Z,22.67
2022-09-14T14:33:48.323Z,22.62
2022-09-14T14:36:20.236Z,22.56
2022-09-14T14:38:52.671Z,22.64
2022-09-14T14:41:24.647Z,22.81
2022-09-14T14:43:56.174Z,22.87
2022-09-14T14:46:28.134Z,22.67
2022-09-14T14:48:59.737Z,22.56
2022-09-14T14:51:31.981Z,22.56
2022-09-14T14:54:04.381Z,22.60
2022-09-14T14:56:36.683Z,22.35
2022-09-14T14:59:25.944Z,22.25
2022-09-14T15:02:01.012Z,22.28
2022-09-14T15:04:32.711Z,22.21
2022-09-14T15:07:04.234Z,22.24
2022-09-14T15:09:36.087Z,22.16
2022-09-14T15:12:07.681Z,22.25
2022-09-14T15:14:39.754Z,22.34
2022-09-14T15:17:14.947Z,22.17
2022-09-14T15:19:46.409Z,21.81
2022-09-14T15:22:21.370Z,21.69
2022-09-14T15:24:53.355Z,21.71
2022-09-14T15:27:34.504Z,21.75
2022-09-14T15:30:06.574Z,21.72
2022-09-14T15:32:46.391Z,21.58
2022-09-14T15:35:18.793Z,21.64
2022-09-14T15:37:51.259Z,21.61
2022-09-14T15:40:22.697Z,21.68
2022-09-14T15:42:54.653Z,21.58
2022-09-14T15:45:26.093Z,21.57
2022-09-14T15:47:57.691Z,21.65
2022-09-14T15:50:29.087Z,21.62
2022-09-14T15:53:02.851Z,21.45
2022-09-14T15:55:34.475Z,21.30
2022-09-14T15:58:05.982Z,21.33
2022-09-14T16:00:38.411Z,21.33
2022-09-14T16:03:10.533Z,21.24
2022-09-14T16:05:42.502Z,21.21
2022-09-14T16:08:14.006Z,21.19
2022-09-14T16:10:46.170Z,21.17
2022-09-14T16:13:17.637Z,21.12
2022-09-14T16:15:49.122Z,21.01
2022-09-14T16:18:20.822Z,20.92
2022-09-14T16:20:52.382Z,20.90
2022-09-14T16:23:24.005Z,20.84
2022-09-14T16:25:55.466Z,20.82
2022-09-14T16:28:27.204Z,20.84
2022-09-14T16:31:07.705Z,20.85
2022-09-14T16:33:43.884Z,20.84
2022-09-14T16:36:18.585Z,20.78
2022-09-14T16:38:50.198Z,20.59
2022-09-14T16:41:21.941Z,20.54
2022-09-14T16:43:57.630Z,20.46
2022-09-14T16:46:31.080Z,20.38
2022-09-14T16:49:02.574Z,20.39
2022-09-14T16:51:34.513Z,20.42
2022-09-14T16:54:06.221Z,20.40
2022-09-14T16:56:39.177Z,20.34
2022-09-14T16:59:11.042Z,20.35
2022-09-14T17:01:44.596Z,20.36
2022-09-14T17:04:21.781Z,20.34
2022-09-14T17:06:55.407Z,20.34
2022-09-14T17:09:29.359Z,20.39
2022-09-14T17:12:01.443Z,20.23
2022-09-14T17:14:35.508Z,20.03
2022-09-14T17:17:07.156Z,20.06
2022-09-14T17:19:43.394Z,20.07
2022-09-14T17:22:15.182Z,20.14
2022-09-14T17:24:46.505Z,20.01
2022-09-14T17:27:19.152Z,20.05
2022-09-14T17:29:51.143Z,19.99
2022-09-14T17:32:22.737Z,19.90
2022-09-14T17:34:55.017Z,20.02
2022-09-14T17:37:27.143Z,20.14
2022-09-14T17:39:58.600Z,20.18
2022-09-14T17:42:30.535Z,20.08
2022-09-14T17:45:04.414Z,19.92
2022-09-14T17:47:38.163Z,19.83
2022-09-14T17:50:11.561Z,19.84
2022-09-14T17:52:43.107Z,19.79
2022-09-14T17:55:14.625Z,19.65
2022-09-14T17:57:46.666Z,19.83
2022-09-14T18:00:19.209Z,19.94
2022-09-14T18:02:55.183Z,19.94
2022-09-14T18:05:27.041Z,19.97
2022-09-14T18:07:59.110Z,19.76
2022-09-14T18:10:30.906Z,19.72
2022-09-14T18:13:03.673Z,19.78
2022-09-14T18:15:39.758Z,19.66
2022-09-14T18:18:12.361Z,19.52
2022-09-14T18:20:44.243Z,19.57
2022-09-14T18:23:16.128Z,19.70
2022-09-14T18:25:49.089Z,19.79
2022-09-14T18:28:20.955Z,19.71
2022-09-14T18:31:01.221Z,19.68
2022-09-14T18:33:34.376Z,19.58
2022-09-14T18:36:08.300Z,19.49
2022-09-14T18:38:40.721Z,19.49
2022-09-14T18:41:13.889Z,19.57
2022-09-14T18:43:48.915Z,19.49
2022-09-14T18:46:27.100Z,19.58
2022-09-14T18:49:03.038Z,19.68
2022-09-14T18:51:35.655Z,19.70
2022-09-14T18:54:09.540Z,19.70
2022-09-14T18:56:42.040Z,19.72
2022-09-14T18:59:16.008Z,19.73
2022-09-14T19:01:48.070Z,19.75
2022-09-14T19:04:20.649Z,19.72
2022-09-14T19:06:52.578Z,19.46
2022-09-14T19:09:24.603Z,19.36
2022-09-14T19:11:57.468Z,19.37
2022-09-14T19:14:31.211Z,19.54
2022-09-14T19:17:03.151Z,19.69
2022-09-14T19:19:35.546Z,19.70
2022-09-14T19:22:07.498Z,19.67
2022-09-14T19:24:39.356Z,19.68
2022-09-14T19:27:11.469Z,19.56
2022-09-14T19:29:43.525Z,19.46
2022-09-14T19:32:15.771Z,19.30
2022-09-14T19:34:48.506Z,19.37
2022-09-14T19:37:20.708Z,19.48
2022-09-14T19:39:55.709Z,19.50
2022-09-14T19:42:28.403Z,19.42
2022-09-14T19:45:00.315Z,19.31
2022-09-14T19:47:33.570Z,19.22
2022-09-14T19:50:05.599Z,19.26
2022-09-14T19:52:37.696Z,19.13
2022-09-14T19:55:10.894Z,19.10
2022-09-14T19:57:42.856Z,19.11
2022-09-14T20:00:18.269Z,19.07
2022-09-14T20:02:49.871Z,19.20
2022-09-14T20:05:23.721Z,19.16
2022-09-14T20:07:56.445Z,19.11
2022-09-14T20:10:28.529Z,18.95
2022-09-14T20:13:00.993Z,18.94
2022-09-14T20:15:34.260Z,19.02
2022-09-14T20:18:06.319Z,18.93
2022-09-14T20:20:40.516Z,18.85
2022-09-14T20:23:12.240Z,18.87
2022-09-14T20:25:45.983Z,18.93
2022-09-14T20:28:17.620Z,18.89
2022-09-14T20:31:00.606Z,19.02
2022-09-14T20:33:32.864Z,19.08
2022-09-14T20:36:06.813Z,19.11
2022-09-14T20:38:46.530Z,19.04
2022-09-14T20:41:20.353Z,18.96
2022-09-14T20:43:51.903Z,18.94
2022-09-14T20:46:26.739Z,18.93
2022-09-14T20:48:58.844Z,19.10
2022-09-14T20:51:30.798Z,19.07
2022-09-14T20:54:02.419Z,19.12
2022-09-14T20:56:35.773Z,19.20
2022-09-14T20:59:09.779Z,19.18
2022-09-14T21:01:43.204Z,19.19
2022-09-14T21:04:17.553Z,19.07
2022-09-14T21:06:52.830Z,18.84
2022-09-14T21:09:27.442Z,18.63
2022-09-14T21:11:58.865Z,18.65
2022-09-14T21:14:30.889Z,18.66
2022-09-14T21:17:02.648Z,18.78
2022-09-14T21:19:34.170Z,18.78
2022-09-14T21:22:06.678Z,18.78
2022-09-14T21:24:39.018Z,18.72
2022-09-14T21:27:10.747Z,18.64
2022-09-14T21:29:42.260Z,18.69
2022-09-14T21:32:14.645Z,18.65
2022-09-14T21:34:46.255Z,18.65
2022-09-14T21:37:17.661Z,18.56
2022-09-14T21:39:48.938Z,18.55
2022-09-14T21:42:20.308Z,18.56
2022-09-14T21:44:58.338Z,18.40
2022-09-14T21:47:34.883Z,18.36
2022-09-14T21:50:07.379Z,18.34
2022-09-14T21:52:44.366Z,18.45
2022-09-14T21:55:15.772Z,18.52
2022-09-14T21:57:50.847Z,18.57
2022-09-14T22:00:23.458Z,18.61
2022-09-14T22:02:57.152Z,18.56
2022-09-14T22:05:28.505Z,18.61
2022-09-14T22:07:59.981Z,18.53
2022-09-14T22:10:31.625Z,18.23
2022-09-14T22:13:03.222Z,18.32
2022-09-14T22:15:36.597Z,18.45
2022-09-14T22:18:08.351Z,18.31
2022-09-14T22:20:39.797Z,18.26
2022-09-14T22:23:11.188Z,18.12
2022-09-14T22:25:46.191Z,18.18
2022-09-14T22:28:17.634Z,18.23
2022-09-14T22:30:52.436Z,18.12
2022-09-14T22:33:25.627Z,18.20
2022-09-14T22:35:58.776Z,18.19
2022-09-14T22:38:32.442Z,18.28
2022-09-14T22:41:05.701Z,18.34
2022-09-14T22:43:38.275Z,18.32
2022-09-14T22:46:10.707Z,18.38
2022-09-14T22:48:42.753Z,18.13
2022-09-14T22:51:17.166Z,17.95
2022-09-14T22:53:48.794Z,18.16
2022-09-14T22:56:23.091Z,18.27
2022-09-14T22:58:54.779Z,18.32
2022-09-14T23:01:28.895Z,18.40
2022-09-14T23:04:02.852Z,18.49
2022-09-14T23:06:40.329Z,18.57
2022-09-14T23:09:14.868Z,18.62
2022-09-14T23:11:44.984Z,18.66
2022-09-14T23:14:17.348Z,18.70
2022-09-14T23:16:49.520Z,18.64
2022-09-14T23:19:21.887Z,18.40
2022-09-14T23:21:53.566Z,18.33
2022-09-14T23:24:25.171Z,18.32
2022-09-14T23:26:56.789Z,18.25
2022-09-14T23:29:28.297Z,18.27
2022-09-14T23:31:59.671Z,18.22
2022-09-14T23:34:31.306Z,18.17
2022-09-14T23:37:03.056Z,18.13
2022-09-14T23:39:34.555Z,18.05
2022-09-14T23:42:06.403Z,17.96
2022-09-14T23:44:37.694Z,17.87
2022-09-14T23:47:09.611Z,17.87
2022-09-14T23:49:41.146Z,17.79
2022-09-14T23:52:12.523Z,17.67
2022-09-14T23:54:44.478Z,17.63
2022-09-14T23:57:15.788Z,17.70
2022-09-14T23:59:47.442Z,17.71
